Odds, Texas
Current Conditions -  °F | °C
As of 12:55 AM on Saturday 25 Oct 2014 (Local Time) from KLXY Reporting Station
Clear Clear  
Wind Chill: 62°   Ceiling: Unl
Heat Index: 62°   Visibility: 10mi
Dew Point: 58°   Wind: 5mph
Humidity: 88%   Direction: 160°SSE
Pressure: 30.12"   Gusts: NA
Location:  31.4027°N, 96.4988°W
Report Text: KLXY 250555Z AUTO 16004KT 10SM CLR 17/15 A3012 RMK AO2 T01660146 10233 20166 402660131
Loading
Personal Weather Stations






























Interactive Weather Map
Tropical Storm Tracking
New forecast layout! Learn more

10-Day Weather Forecast

Advertisements
Track Severe Weather on mobile